Time;durP1;ratioP1;P1;durP2;ratioP2;P2;SDS_P1;SDS_P2;PMS_P1;PMS_P2;Temp;Humidity;BMP_temperature;BMP_pressure;BME280_temperature;BME280_humidity;BME280_pressure;Samples;Min_cycle;Max_cycle;Signal;HPM_P1;HPM_P2
2021/05/28 00:02:09;;;;;;;14.37;12.97;;;;;;;17.49;87.27;100412.52;1742296;80;21065;-69
2021/05/28 00:04:36;;;;;;;14.57;13.07;;;;;;;17.46;87.31;100414.48;1736416;81;21108;-68
2021/05/28 00:07:02;;;;;;;14.03;12.60;;;;;;;17.37;87.34;100415.76;1739452;80;21201;-69
2021/05/28 00:09:31;;;;;;;14.30;12.67;;;;;;;17.30;87.49;100409.98;1729685;80;21108;-69
2021/05/28 00:11:58;;;;;;;13.47;12.17;;;;;;;17.25;87.65;100410.91;1739063;80;21060;-69
2021/05/28 00:14:26;;;;;;;15.00;13.40;;;;;;;17.20;87.83;100418.32;1735994;80;21180;-68
2021/05/28 00:16:54;;;;;;;14.93;13.50;;;;;;;17.15;88.04;100411.15;1742430;80;21037;-69
2021/05/28 00:19:20;;;;;;;14.57;13.27;;;;;;;17.16;88.22;100420.04;1738385;80;21117;-68
2021/05/28 00:21:47;;;;;;;15.23;13.63;;;;;;;17.19;88.45;100416.17;1739479;80;21551;-69
2021/05/28 00:24:14;;;;;;;15.10;13.50;;;;;;;17.25;88.61;100412.82;1741589;80;21065;-69
2021/05/28 00:26:41;;;;;;;14.73;13.00;;;;;;;17.29;88.70;100409.19;1744460;80;21069;-69
2021/05/28 00:29:07;;;;;;;14.70;13.10;;;;;;;17.35;88.74;100408.53;1730574;80;21702;-69
2021/05/28 00:31:34;;;;;;;14.53;12.97;;;;;;;17.40;88.73;100398.16;1735632;80;21090;-68
2021/05/28 00:34:01;;;;;;;14.13;12.73;;;;;;;17.37;88.63;100387.41;1737167;80;21136;-68
2021/05/28 00:36:28;;;;;;;14.50;13.00;;;;;;;17.31;88.68;100397.55;1751031;80;21638;-67
2021/05/28 00:38:54;;;;;;;13.87;12.63;;;;;;;17.28;88.82;100402.77;1738186;81;21088;-69
2021/05/28 00:41:22;;;;;;;14.37;13.07;;;;;;;17.22;88.91;100403.98;1737100;80;21662;-68
2021/05/28 00:43:50;;;;;;;13.97;12.57;;;;;;;17.18;89.18;100405.70;1740235;80;21116;-68
2021/05/28 00:46:16;;;;;;;14.90;13.40;;;;;;;17.20;89.37;100402.13;1739222;80;21637;-68
2021/05/28 00:48:44;;;;;;;15.37;13.87;;;;;;;17.25;89.51;100400.12;1739761;80;21124;-70
2021/05/28 00:51:11;;;;;;;13.80;12.50;;;;;;;17.29;89.49;100398.40;1737065;80;21138;-68
2021/05/28 00:53:37;;;;;;;16.53;14.93;;;;;;;17.31;89.49;100386.75;1740997;80;21722;-68
2021/05/28 00:56:05;;;;;;;17.37;15.67;;;;;;;17.29;89.36;100394.91;1737594;81;21108;-69
2021/05/28 00:58:32;;;;;;;18.00;16.30;;;;;;;17.21;89.31;100399.66;1725541;81;21108;-69
2021/05/28 01:00:59;;;;;;;20.00;18.00;;;;;;;17.11;89.34;100393.42;1734997;80;21087;-68
2021/05/28 01:03:27;;;;;;;22.47;20.13;;;;;;;17.03;89.38;100396.83;1742655;80;21065;-68
2021/05/28 01:05:54;;;;;;;23.00;20.70;;;;;;;16.93;89.48;100394.35;1733710;80;21113;-68
2021/05/28 01:08:21;;;;;;;24.30;21.80;;;;;;;16.82;89.65;100397.03;1737164;81;21865;-67
2021/05/28 01:10:50;;;;;;;25.03;22.43;;;;;;;16.76;89.83;100392.29;1726836;80;21124;-67
2021/05/28 01:13:18;;;;;;;24.80;22.37;;;;;;;16.77;90.03;100392.53;1710891;82;21102;-68
2021/05/28 01:15:47;;;;;;;24.80;22.30;;;;;;;16.82;90.20;100397.03;1746790;80;21529;-68
2021/05/28 01:18:14;;;;;;;24.03;21.53;;;;;;;16.86;90.23;100391.28;1749243;80;21024;-68
2021/05/28 01:20:41;;;;;;;25.30;22.80;;;;;;;16.86;90.19;100391.28;1738496;80;22799;-69
2021/05/28 01:23:08;;;;;;;25.50;22.97;;;;;;;16.84;90.24;100389.42;1740352;79;21157;-68
2021/05/28 01:25:35;;;;;;;26.90;24.10;;;;;;;16.81;90.27;100390.02;1731413;80;21137;-68
2021/05/28 01:28:02;;;;;;;25.27;22.77;;;;;;;16.83;90.37;100389.18;1733714;80;21094;-69
2021/05/28 01:30:30;;;;;;;25.40;22.90;;;;;;;16.90;90.44;100387.42;1719828;80;21977;-69
2021/05/28 01:32:58;;;;;;;25.33;22.83;;;;;;;16.92;90.34;100389.27;1738468;80;21125;-68
2021/05/28 01:35:24;;;;;;;25.93;23.23;;;;;;;16.95;90.28;100395.41;1741952;80;21049;-69
2021/05/28 01:37:52;;;;;;;25.07;22.57;;;;;;;16.97;90.17;100391.29;1731802;82;21060;-69
2021/05/28 01:40:19;;;;;;;25.10;22.60;;;;;;;16.96;90.07;100395.09;1738341;81;21058;-69
2021/05/28 01:42:47;;;;;;;25.67;23.10;;;;;;;16.99;90.01;100393.70;1741224;80;21054;-68
2021/05/28 01:45:14;;;;;;;24.40;21.97;;;;;;;17.01;89.91;100390.13;1742994;80;21164;-68
2021/05/28 01:47:41;;;;;;;26.03;23.33;;;;;;;17.04;89.85;100390.88;1745124;80;21354;-68
2021/05/28 01:50:09;;;;;;;24.73;22.33;;;;;;;17.08;89.76;100385.93;1740225;81;21643;-68
2021/05/28 01:52:37;;;;;;;24.50;22.20;;;;;;;17.12;89.61;100386.12;1736570;80;21711;-69
2021/05/28 01:55:06;;;;;;;24.60;22.10;;;;;;;17.14;89.50;100392.55;1742010;80;21587;-69
2021/05/28 01:57:33;;;;;;;24.00;21.70;;;;;;;17.15;89.42;100384.72;1717750;81;21156;-69
2021/05/28 02:00:00;;;;;;;23.37;20.97;;;;;;;17.20;89.37;100389.42;1734850;80;21720;-69
2021/05/28 02:02:27;;;;;;;23.73;21.33;;;;;;;17.24;89.25;100388.26;1704943;82;21218;-69
2021/05/28 02:04:54;;;;;;;22.77;20.47;;;;;;;17.25;89.08;100392.02;1745103;80;21089;-69
2021/05/28 02:07:22;;;;;;;22.60;20.40;;;;;;;17.28;89.04;100390.06;1751088;80;21137;-69
2021/05/28 02:09:49;;;;;;;23.70;21.43;;;;;;;17.30;88.89;100389.74;1741615;81;21161;-67
2021/05/28 02:12:16;;;;;;;22.93;20.73;;;;;;;17.32;88.76;100392.39;1726549;80;21088;-68
2021/05/28 02:14:43;;;;;;;23.53;21.10;;;;;;;17.33;88.68;100387.78;1740350;80;21109;-68
2021/05/28 02:17:10;;;;;;;22.83;20.60;;;;;;;17.35;88.56;100386.37;1750980;80;21061;-68
2021/05/28 02:19:38;;;;;;;22.20;20.00;;;;;;;17.37;88.44;100390.11;1741750;82;21148;-68
2021/05/28 02:22:10;;;;;;;22.77;20.50;;;;;;;17.39;88.38;100391.96;1737854;80;21069;-69
2021/05/28 02:24:35;;;;;;;20.17;18.17;;;;;;;17.39;88.29;100387.91;1739483;80;21161;-68
2021/05/28 02:27:02;;;;;;;20.77;18.77;;;;;;;17.40;88.22;100394.10;1716391;80;21583;-69
2021/05/28 02:29:29;;;;;;;20.47;18.37;;;;;;;17.37;88.15;100386.06;1723879;80;21098;-69
2021/05/28 02:31:56;;;;;;;20.67;18.77;;;;;;;17.37;88.14;100386.62;1740530;80;21132;-69
2021/05/28 02:34:23;;;;;;;20.13;18.10;;;;;;;17.35;88.06;100380.98;1743283;80;21097;-68
2021/05/28 02:36:49;;;;;;;20.17;18.27;;;;;;;17.33;88.01;100379.13;1736784;80;21631;-69
2021/05/28 02:39:16;;;;;;;18.83;17.03;;;;;;;17.28;88.01;100368.47;1742566;80;21168;-67
2021/05/28 02:41:44;;;;;;;17.80;16.13;;;;;;;17.27;88.11;100374.16;1732695;80;21698;-68
2021/05/28 02:44:11;;;;;;;17.40;15.80;;;;;;;17.23;88.15;100371.83;1735563;80;21113;-68
2021/05/28 02:46:37;;;;;;;16.83;15.23;;;;;;;17.15;88.31;100368.52;1740614;80;21672;-68
2021/05/28 02:49:05;;;;;;;17.20;15.60;;;;;;;17.06;88.54;100369.23;1728722;81;21129;-68
2021/05/28 02:51:31;;;;;;;18.10;16.30;;;;;;;17.04;88.72;100368.73;1729202;80;21081;-69
2021/05/28 02:53:58;;;;;;;17.63;16.03;;;;;;;16.99;88.86;100372.91;1737725;80;21133;-70
2021/05/28 02:56:25;;;;;;;17.10;15.60;;;;;;;16.97;89.09;100371.05;1739211;80;21045;-69
2021/05/28 02:58:51;;;;;;;17.73;16.00;;;;;;;16.95;89.29;100368.44;1736508;80;21794;-69
2021/05/28 03:01:17;;;;;;;18.03;16.33;;;;;;;16.87;89.46;100361.28;1736562;80;21656;-68
2021/05/28 03:03:46;;;;;;;17.63;15.87;;;;;;;16.86;89.75;100358.91;1738650;80;21065;-68
2021/05/28 03:06:13;;;;;;;18.40;16.60;;;;;;;16.88;89.96;100359.41;1695801;82;21631;-68
2021/05/28 03:08:40;;;;;;;18.00;16.30;;;;;;;16.88;90.12;100358.06;1734584;80;21065;-67
2021/05/28 03:11:08;;;;;;;18.87;17.07;;;;;;;16.84;90.30;100357.05;1734966;80;21069;-68
2021/05/28 03:13:35;;;;;;;17.33;15.63;;;;;;;16.81;90.58;100354.95;1739495;80;21137;-67
2021/05/28 03:16:05;;;;;;;18.63;16.80;;;;;;;16.82;90.85;100356.02;1738280;80;21065;-67
2021/05/28 03:18:51;;;;;;;20.73;18.73;;;;;;;16.86;91.01;100353.51;1735449;80;21128;-66
2021/05/28 03:21:22;;;;;;;23.17;20.97;;;;;;;16.87;91.18;100353.75;1733866;82;21097;-66
2021/05/28 03:23:53;;;;;;;22.07;19.90;;;;;;;16.85;91.32;100354.06;1724494;79;21179;-67
2021/05/28 03:26:20;;;;;;;22.30;20.20;;;;;;;16.87;91.46;100357.80;1737770;80;21137;-67
2021/05/28 03:28:47;;;;;;;22.73;20.43;;;;;;;16.94;91.53;100350.08;1734375;80;21069;-68
2021/05/28 03:31:13;;;;;;;23.57;21.27;;;;;;;17.02;91.42;100360.72;1737994;80;21160;-68
2021/05/28 03:33:41;;;;;;;25.53;23.00;;;;;;;17.08;91.32;100361.64;1735488;80;21092;-68
2021/05/28 03:36:07;;;;;;;25.00;22.60;;;;;;;17.15;91.09;100363.13;1738580;80;21116;-69
2021/05/28 03:38:34;;;;;;;25.87;23.27;;;;;;;17.13;90.86;100362.63;1739977;80;21386;-69
2021/05/28 03:41:02;;;;;;;23.60;21.30;;;;;;;17.11;90.71;100368.34;1739657;80;21085;-70
2021/05/28 03:43:28;;;;;;;23.87;21.50;;;;;;;17.07;90.67;100362.73;1740210;80;21716;-68
2021/05/28 03:45:56;;;;;;;22.43;20.23;;;;;;;17.08;90.62;100367.59;1738511;80;21085;-69
2021/05/28 03:48:23;;;;;;;22.77;20.57;;;;;;;17.14;90.64;100369.60;1738617;80;21077;-69
2021/05/28 03:50:50;;;;;;;22.17;19.87;;;;;;;17.22;90.54;100362.94;1742093;80;21072;-70
2021/05/28 03:53:17;;;;;;;21.33;19.23;;;;;;;17.29;90.40;100367.36;1739940;80;20994;-70
2021/05/28 03:55:45;;;;;;;20.50;18.60;;;;;;;17.36;90.25;100366.92;1741359;80;20989;-70
2021/05/28 03:58:13;;;;;;;19.80;17.90;;;;;;;17.41;90.11;100373.56;1741651;80;21112;-68
2021/05/28 04:00:39;;;;;;;20.37;18.37;;;;;;;17.48;90.04;100367.17;1748521;80;21627;-68
2021/05/28 04:03:07;;;;;;;19.50;17.67;;;;;;;17.58;89.90;100366.92;1751227;80;21085;-68
2021/05/28 04:05:34;;;;;;;19.67;17.77;;;;;;;17.70;89.69;100372.30;1734172;80;21127;-69
2021/05/28 04:08:01;;;;;;;18.47;16.63;;;;;;;17.81;89.44;100377.73;1744085;80;21109;-69
2021/05/28 04:10:29;;;;;;;18.63;16.73;;;;;;;17.90;89.16;100373.70;1740800;80;21065;-69
2021/05/28 04:12:57;;;;;;;17.13;15.33;;;;;;;17.97;88.81;100374.09;1738763;80;21132;-69
2021/05/28 04:15:24;;;;;;;16.97;15.30;;;;;;;17.99;88.43;100369.94;1744525;80;21128;-70
2021/05/28 04:17:53;;;;;;;17.47;15.77;;;;;;;18.01;88.17;100377.20;1739141;80;21052;-69
2021/05/28 04:20:19;;;;;;;16.97;15.27;;;;;;;18.02;88.04;100358.52;1744684;80;21063;-69
2021/05/28 04:22:48;;;;;;;17.20;15.40;;;;;;;18.11;87.91;100363.17;1723137;80;21681;-69
2021/05/28 04:25:15;;;;;;;17.40;15.60;;;;;;;18.21;87.54;100362.33;1740700;80;21061;-69
2021/05/28 04:27:42;;;;;;;16.67;14.97;;;;;;;18.29;87.17;100366.16;1741464;80;21108;-69
2021/05/28 04:30:10;;;;;;;15.90;14.27;;;;;;;18.37;86.91;100370.03;1741186;80;21069;-69
2021/05/28 04:32:37;;;;;;;16.10;14.60;;;;;;;18.42;86.62;100368.52;1741134;80;21912;-70
2021/05/28 04:35:05;;;;;;;16.23;14.63;;;;;;;18.46;86.42;100375.70;1739696;80;21168;-70
2021/05/28 04:37:32;;;;;;;15.80;14.13;;;;;;;18.55;86.19;100377.62;1738964;80;21110;-70
2021/05/28 04:39:59;;;;;;;14.83;13.33;;;;;;;18.49;85.52;100376.43;1741619;80;21175;-70
2021/05/28 04:42:26;;;;;;;14.50;13.10;;;;;;;18.39;85.40;100382.09;1741183;81;21552;-69
2021/05/28 04:44:53;;;;;;;13.80;12.50;;;;;;;18.34;85.47;100386.31;1739576;80;21093;-69
2021/05/28 04:47:20;;;;;;;14.43;13.00;;;;;;;18.37;85.75;100384.34;1741234;80;21097;-69
2021/05/28 04:49:47;;;;;;;15.53;14.00;;;;;;;18.43;85.70;100386.36;1740183;80;21548;-70
2021/05/28 04:52:13;;;;;;;15.83;14.23;;;;;;;18.45;85.51;100379.50;1739587;81;21080;-70
2021/05/28 04:54:42;;;;;;;17.50;15.80;;;;;;;18.56;85.42;100381.91;1733472;81;21112;-68
2021/05/28 04:57:08;;;;;;;16.87;15.27;;;;;;;18.65;84.99;100385.44;1715063;80;21076;-70
2021/05/28 04:59:35;;;;;;;16.73;15.03;;;;;;;18.74;84.70;100382.23;1743593;80;21129;-70
2021/05/28 05:02:04;;;;;;;15.87;14.30;;;;;;;18.86;84.46;100371.59;1743690;81;21609;-70
2021/05/28 05:04:31;;;;;;;15.47;13.93;;;;;;;18.91;84.12;100377.39;1741434;80;21196;-70
2021/05/28 05:06:58;;;;;;;15.13;13.63;;;;;;;18.91;83.54;100374.12;1719029;80;21104;-69
2021/05/28 05:09:25;;;;;;;14.60;13.10;;;;;;;18.95;83.24;100374.28;1734067;80;21119;-70
2021/05/28 05:11:52;;;;;;;13.17;11.87;;;;;;;18.98;82.97;100379.86;1741711;80;21125;-69
2021/05/28 05:14:18;;;;;;;14.53;13.10;;;;;;;18.95;82.68;100376.45;1740507;80;21102;-70
2021/05/28 05:16:47;;;;;;;14.20;12.80;;;;;;;19.01;82.66;100380.34;1740219;80;21197;-70
2021/05/28 05:19:14;;;;;;;15.70;14.07;;;;;;;19.07;82.48;100375.02;1739020;80;21101;-70
2021/05/28 05:21:41;;;;;;;14.97;13.43;;;;;;;19.12;82.25;100377.02;1742370;81;21622;-69
2021/05/28 05:24:09;;;;;;;15.23;13.73;;;;;;;19.20;81.95;100376.20;1717208;82;21106;-70
2021/05/28 05:26:37;;;;;;;14.80;13.30;;;;;;;19.27;81.52;100375.73;1746329;80;21658;-69
2021/05/28 05:29:04;;;;;;;14.10;12.70;;;;;;;19.34;81.18;100378.74;1739201;80;21071;-69
2021/05/28 05:31:31;;;;;;;14.73;13.33;;;;;;;19.38;81.02;100383.78;1747838;80;21061;-69
2021/05/28 05:34:02;;;;;;;12.90;11.70;;;;;;;19.35;80.81;100376.30;1742430;80;21187;-70
2021/05/28 05:36:26;;;;;;;12.57;11.37;;;;;;;19.35;80.56;100376.86;1739940;80;21041;-69
2021/05/28 05:38:53;;;;;;;13.57;12.17;;;;;;;19.41;80.27;100370.95;1739269;80;21098;-69
2021/05/28 05:41:19;;;;;;;12.20;10.90;;;;;;;19.48;79.71;100366.94;1737407;80;20994;-70
2021/05/28 05:43:46;;;;;;;11.40;10.30;;;;;;;19.53;79.36;100366.22;1739435;80;21088;-69
2021/05/28 05:46:13;;;;;;;11.20;10.10;;;;;;;19.57;78.98;100375.29;1738638;80;21158;-70
2021/05/28 05:48:39;;;;;;;11.53;10.50;;;;;;;19.57;78.57;100370.44;1739685;80;21076;-69
2021/05/28 05:51:06;;;;;;;12.07;10.87;;;;;;;19.49;78.72;100368.55;1708575;82;21141;-70
2021/05/28 05:53:33;;;;;;;12.97;11.60;;;;;;;19.40;79.29;100367.20;1739965;80;20979;-70
2021/05/28 05:56:00;;;;;;;13.30;12.00;;;;;;;19.34;79.79;100363.84;1744055;80;21041;-70
2021/05/28 05:58:27;;;;;;;12.83;11.60;;;;;;;19.32;79.93;100364.75;1738048;80;22676;-69
2021/05/28 06:00:54;;;;;;;11.10;10.03;;;;;;;19.36;79.94;100367.61;1745238;80;21039;-70
2021/05/28 06:03:21;;;;;;;12.30;10.73;;;;;;;19.40;79.98;100362.57;1740487;80;21057;-69
2021/05/28 06:05:48;;;;;;;11.87;10.27;;;;;;;19.47;80.09;100358.02;1736990;80;21155;-70
2021/05/28 06:08:14;;;;;;;14.80;13.20;;;;;;;19.58;80.08;100357.14;1746317;80;21013;-70
2021/05/28 06:10:41;;;;;;;15.30;13.80;;;;;;;19.69;79.98;100359.77;1745688;80;21172;-70
2021/05/28 06:13:09;;;;;;;18.17;16.27;;;;;;;19.89;79.71;100360.42;1739699;80;21113;-70
2021/05/28 06:15:35;;;;;;;18.83;15.23;;;;;;;20.09;78.64;100358.11;1739487;80;21513;-68
2021/05/28 06:18:02;;;;;;;17.43;15.63;;;;;;;20.26;77.83;100355.87;1710000;82;20991;-70
2021/05/28 06:20:29;;;;;;;15.80;14.20;;;;;;;20.41;77.20;100361.33;1735600;80;22267;-69
2021/05/28 06:22:57;;;;;;;17.60;15.80;;;;;;;20.48;76.85;100363.75;1740143;80;21117;-68
2021/05/28 06:25:23;;;;;;;15.97;14.27;;;;;;;20.47;76.31;100364.88;1739335;80;21148;-69
2021/05/28 06:27:50;;;;;;;16.50;14.80;;;;;;;20.52;75.89;100359.84;1729638;80;21637;-69
2021/05/28 06:30:18;;;;;;;18.17;16.07;;;;;;;20.62;75.45;100356.74;1739656;80;21135;-69
2021/05/28 06:32:45;;;;;;;16.73;14.67;;;;;;;20.83;75.32;100358.14;1739906;80;21045;-69
2021/05/28 06:35:12;;;;;;;16.87;15.10;;;;;;;21.05;73.99;100359.70;1735553;80;21152;-70
2021/05/28 06:37:39;;;;;;;13.77;12.37;;;;;;;21.21;73.09;100359.89;1738196;80;21822;-69
2021/05/28 06:40:07;;;;;;;13.70;12.30;;;;;;;21.44;71.96;100353.56;1738947;81;21137;-70
2021/05/28 06:42:34;;;;;;;17.03;14.70;;;;;;;21.57;70.58;100348.95;1738563;80;21667;-69
2021/05/28 06:45:01;;;;;;;17.53;15.83;;;;;;;21.73;69.72;100352.05;1739380;80;21032;-72
2021/05/28 06:47:28;;;;;;;16.97;15.10;;;;;;;21.73;69.01;100353.98;1730008;80;21049;-70
2021/05/28 06:49:55;;;;;;;16.73;15.03;;;;;;;21.72;68.86;100353.19;1716029;81;21140;-69
2021/05/28 06:52:22;;;;;;;15.90;14.30;;;;;;;21.81;68.62;100346.84;1743144;80;21763;-68
2021/05/28 06:54:49;;;;;;;16.27;14.57;;;;;;;21.92;68.66;100346.08;1747353;80;21092;-69
2021/05/28 06:57:16;;;;;;;15.47;13.97;;;;;;;22.06;68.88;100353.91;1735155;80;21087;-69
2021/05/28 06:59:43;;;;;;;17.10;14.77;;;;;;;22.19;67.93;100347.94;1723044;80;21149;-69
2021/05/28 07:02:09;;;;;;;15.63;14.10;;;;;;;22.08;67.03;100342.13;1744606;80;21038;-68
2021/05/28 07:04:36;;;;;;;13.13;11.83;;;;;;;22.07;66.85;100340.52;1730370;80;21833;-69
2021/05/28 07:07:03;;;;;;;14.20;12.77;;;;;;;22.04;66.28;100339.84;1724622;80;21078;-69
2021/05/28 07:09:31;;;;;;;17.97;14.70;;;;;;;22.03;66.50;100338.27;1741260;80;21647;-69
2021/05/28 07:11:57;;;;;;;13.87;12.57;;;;;;;22.04;67.12;100343.13;1737551;80;21113;-69
2021/05/28 07:14:25;;;;;;;14.97;13.37;;;;;;;22.19;66.55;100334.34;1740032;80;21034;-67
2021/05/28 07:16:51;;;;;;;14.90;13.40;;;;;;;22.30;66.41;100342.83;1741099;80;21150;-68
2021/05/28 07:19:20;;;;;;;11.17;10.07;;;;;;;22.42;66.46;100338.17;1741024;80;21085;-69
2021/05/28 07:21:46;;;;;;;14.13;12.73;;;;;;;22.56;64.75;100339.16;1740392;80;21081;-69
2021/05/28 07:24:14;;;;;;;13.50;12.10;;;;;;;22.56;64.51;100334.30;1736485;80;21087;-68
2021/05/28 07:26:40;;;;;;;13.53;12.23;;;;;;;22.66;64.21;100337.90;1731621;80;21022;-69
2021/05/28 07:29:07;;;;;;;13.60;12.20;;;;;;;22.80;64.05;100333.44;1740974;80;21105;-69
2021/05/28 07:31:33;;;;;;;12.63;11.33;;;;;;;22.96;63.20;100335.69;1738641;80;21238;-68
2021/05/28 07:34:00;;;;;;;14.00;12.63;;;;;;;23.07;61.90;100334.08;1742614;80;21022;-69
2021/05/28 07:36:27;;;;;;;12.53;11.30;;;;;;;23.20;61.74;100334.82;1734025;80;21078;-70
2021/05/28 07:38:54;;;;;;;16.70;15.20;;;;;;;23.33;61.41;100335.53;1739444;80;21087;-71
2021/05/28 07:41:20;;;;;;;17.07;15.37;;;;;;;23.45;61.21;100325.94;1742095;81;21656;-70
2021/05/28 07:43:49;;;;;;;14.47;13.17;;;;;;;23.53;60.74;100331.81;1735494;80;21542;-69
2021/05/28 07:46:15;;;;;;;15.63;14.03;;;;;;;23.50;60.65;100329.78;1701613;84;21565;-69
2021/05/28 07:48:44;;;;;;;17.67;16.07;;;;;;;23.38;60.82;100333.35;1702178;82;21150;-68
2021/05/28 07:51:12;;;;;;;15.80;14.20;;;;;;;23.31;61.04;100326.35;1712555;82;21069;-69
2021/05/28 07:53:40;;;;;;;16.23;14.57;;;;;;;23.24;61.22;100328.10;1736464;80;21160;-69
2021/05/28 07:56:07;;;;;;;16.07;14.40;;;;;;;23.19;60.93;100327.77;1739168;80;21064;-69
2021/05/28 07:58:35;;;;;;;14.80;13.50;;;;;;;23.19;60.71;100319.59;1740365;80;21671;-69
2021/05/28 08:01:02;;;;;;;17.70;14.53;;;;;;;23.25;60.52;100325.02;1737375;80;21132;-68
2021/05/28 08:03:29;;;;;;;14.90;13.40;;;;;;;23.32;59.81;100321.69;1745868;80;21153;-69
2021/05/28 08:05:55;;;;;;;13.40;12.10;;;;;;;23.33;59.32;100320.00;1736900;80;21691;-69
2021/05/28 08:08:26;;;;;;;17.70;15.20;;;;;;;23.34;58.70;100318.05;1739064;80;21123;-69
2021/05/28 08:10:52;;;;;;;23.50;15.03;;;;;;;23.39;59.71;100319.15;1741853;81;21572;-68
2021/05/28 08:13:19;;;;;;;14.83;13.33;;;;;;;23.40;60.35;100314.73;1738532;80;21095;-69
2021/05/28 08:15:48;;;;;;;13.77;12.40;;;;;;;23.27;60.16;100308.34;1736950;80;21543;-68
2021/05/28 08:18:16;;;;;;;14.80;13.33;;;;;;;23.02;60.99;100307.07;1746673;80;21114;-68
2021/05/28 08:20:43;;;;;;;13.80;12.40;;;;;;;23.02;62.12;100303.55;1732024;80;21191;-69
2021/05/28 08:23:10;;;;;;;13.33;11.93;;;;;;;23.13;62.62;100304.09;1725405;80;21573;-68
2021/05/28 08:25:37;;;;;;;14.40;12.93;;;;;;;23.32;61.33;100303.98;1739500;80;21108;-68
2021/05/28 08:28:05;;;;;;;14.47;12.97;;;;;;;23.41;60.29;100291.77;1740618;80;21208;-68
2021/05/28 08:30:33;;;;;;;11.63;10.57;;;;;;;23.47;59.96;100292.31;1718135;80;21642;-69
2021/05/28 08:33:00;;;;;;;12.57;11.37;;;;;;;23.61;59.76;100285.84;1738552;80;21084;-67
2021/05/28 08:35:27;;;;;;;13.70;12.30;;;;;;;23.69;58.87;100293.69;1741558;80;21619;-68
2021/05/28 08:37:55;;;;;;;13.00;11.77;;;;;;;23.76;58.73;100288.98;1718534;80;21203;-68
2021/05/28 08:40:23;;;;;;;13.60;12.17;;;;;;;23.80;57.60;100287.91;1727509;80;21601;-67
2021/05/28 08:42:50;;;;;;;14.23;11.37;;;;;;;23.80;57.87;100289.85;1699948;82;22627;-68
2021/05/28 08:45:18;;;;;;;12.23;11.07;;;;;;;23.93;57.79;100275.55;1742333;80;20982;-68
2021/05/28 08:47:45;;;;;;;11.67;10.47;;;;;;;24.11;57.54;100281.61;1739341;82;21051;-68
2021/05/28 08:50:12;;;;;;;11.90;10.70;;;;;;;24.31;56.88;100280.30;1721907;82;21641;-67
2021/05/28 08:52:39;;;;;;;10.40;9.27;;;;;;;24.45;56.22;100280.66;1739851;80;21073;-68
2021/05/28 08:55:06;;;;;;;8.83;8.00;;;;;;;24.57;54.98;100281.08;1738063;80;21100;-68
2021/05/28 08:57:33;;;;;;;8.80;8.03;;;;;;;24.73;54.47;100272.83;1742778;80;20993;-67
2021/05/28 09:00:00;;;;;;;9.13;8.23;;;;;;;24.87;53.82;100270.37;1743117;82;21069;-68
2021/05/28 09:02:37;;;;;;;9.97;8.93;;;;;;;25.05;53.74;100274.83;1735732;80;21132;-67
2021/05/28 09:05:16;;;;;;;9.33;8.43;;;;;;;25.19;54.33;100278.42;1726907;80;21060;-67
2021/05/28 09:07:56;;;;;;;8.80;8.00;;;;;;;25.23;55.48;100279.27;1711648;80;21171;-67
2021/05/28 09:10:38;;;;;;;10.33;9.33;;;;;;;25.26;54.64;100279.33;1742137;80;21050;-68
2021/05/28 09:13:22;;;;;;;11.80;10.70;;;;;;;25.16;54.23;100272.31;1733501;80;21058;-68
2021/05/28 09:16:05;;;;;;;8.90;8.03;;;;;;;24.96;53.34;100268.79;1740043;80;21013;-68
2021/05/28 09:18:56;;;;;;;8.57;7.77;;;;;;;24.73;53.33;100270.09;1726672;82;21097;-68
2021/05/28 09:21:30;;;;;;;9.05;8.15;;;;;;;24.55;53.78;100270.53;1738411;80;21076;-68
2021/05/28 09:24:08;;;;;;;9.20;8.17;;;;;;;24.44;54.29;100266.77;1746603;80;21045;-67
2021/05/28 09:26:36;;;;;;;10.00;9.00;;;;;;;24.47;54.03;100258.44;1672106;82;21029;-68
2021/05/28 09:29:06;;;;;;;7.63;6.93;;;;;;;24.55;53.86;100260.19;1727849;81;21049;-67
2021/05/28 09:31:33;;;;;;;7.07;6.37;;;;;;;24.65;53.37;100265.66;1726253;80;21081;-67
2021/05/28 09:34:00;;;;;;;7.97;7.10;;;;;;;24.73;54.02;100255.08;1699698;82;21153;-67
2021/05/28 09:36:33;;;;;;;9.00;6.80;;;;;;;24.77;52.37;100256.71;1731591;80;21109;-68
2021/05/28 09:39:10;;;;;;;8.50;6.50;;;;;;;24.78;52.32;100254.80;1736883;80;21041;-68
2021/05/28 09:41:57;;;;;;;7.23;6.50;;;;;;;24.92;52.96;100248.23;1739039;81;21045;-68
2021/05/28 09:44:31;;;;;;;7.77;7.07;;;;;;;25.08;52.91;100246.78;1707179;82;21628;-68
2021/05/28 09:47:05;;;;;;;7.03;6.33;;;;;;;25.33;52.76;100250.55;1738222;80;21115;-68
2021/05/28 09:49:37;;;;;;;7.73;6.87;;;;;;;25.47;52.63;100249.44;1735317;80;21086;-68
2021/05/28 09:52:24;;;;;;;6.33;5.50;;;;;;;25.51;52.07;100246.19;1745686;80;21104;-68
2021/05/28 09:54:58;;;;;;;9.53;6.53;;;;;;;25.57;51.80;100245.28;1741231;80;21053;-68
2021/05/28 09:57:39;;;;;;;6.77;5.33;;;;;;;25.61;51.19;100238.73;1741714;80;21073;-68
2021/05/28 10:00:32;;;;;;;6.28;5.67;;;;;;;25.59;50.19;100240.24;1741664;80;21121;-67
2021/05/28 10:03:18;;;;;;;8.77;5.80;;;;;;;25.48;50.99;100237.34;1736607;80;21084;-68
2021/05/28 10:05:50;;;;;;;6.73;5.77;;;;;;;25.52;50.60;100240.13;1732868;80;21062;-68
2021/05/28 10:08:20;;;;;;;11.87;7.40;;;;;;;25.50;49.95;100237.20;1739419;80;21104;-67
2021/05/28 10:10:50;;;;;;;8.03;6.37;;;;;;;25.36;50.80;100224.64;1742543;80;21043;-68
2021/05/28 10:13:20;;;;;;;8.75;5.85;;;;;;;25.42;51.10;100228.65;1739748;80;21094;-68
2021/05/28 10:15:55;;;;;;;5.65;5.08;;;;;;;25.51;50.34;100225.67;1748129;80;21631;-67
2021/05/28 10:18:23;;;;;;;6.53;5.50;;;;;;;25.65;51.31;100221.79;1740169;80;21065;-68
2021/05/28 10:20:54;;;;;;;6.40;5.37;;;;;;;25.68;50.37;100219.69;1721634;80;21690;-68
2021/05/28 10:23:22;;;;;;;5.37;4.87;;;;;;;25.69;50.26;100211.69;1737323;80;21049;-68
2021/05/28 10:25:56;;;;;;;4.93;4.23;;;;;;;25.67;50.44;100211.86;1742853;80;21659;-68
2021/05/28 10:28:32;;;;;;;4.90;3.97;;;;;;;25.74;50.78;100205.12;1732928;80;21551;-68
2021/05/28 10:30:59;;;;;;;6.80;4.93;;;;;;;25.77;49.88;100207.71;1723917;80;21073;-68
2021/05/28 10:33:32;;;;;;;4.97;4.17;;;;;;;25.68;50.56;100214.80;1737059;80;21921;-69
2021/05/28 10:36:03;;;;;;;5.27;4.20;;;;;;;25.71;49.38;100214.07;1747097;80;21168;-69
2021/05/28 10:38:41;;;;;;;5.75;4.53;;;;;;;25.81;48.71;100208.00;1738621;80;22293;-66
2021/05/28 10:41:18;;;;;;;4.47;3.97;;;;;;;25.84;49.06;100203.16;1740726;80;21140;-68
2021/05/28 10:43:54;;;;;;;6.50;4.47;;;;;;;25.81;47.19;100190.80;1736578;80;21153;-67
2021/05/28 10:46:21;;;;;;;5.73;4.60;;;;;;;25.74;48.08;100190.87;1741834;80;21116;-69
2021/05/28 10:49:00;;;;;;;5.40;4.80;;;;;;;25.81;47.57;100186.69;1743188;81;21516;-68
2021/05/28 10:51:37;;;;;;;5.47;4.80;;;;;;;25.89;47.23;100185.63;1742941;80;21505;-67
2021/05/28 10:54:10;;;;;;;5.13;3.90;;;;;;;25.98;46.52;100180.67;1738926;80;21161;-68
2021/05/28 10:56:44;;;;;;;4.90;4.40;;;;;;;26.09;46.23;100180.22;1745319;80;21128;-67
2021/05/28 10:59:16;;;;;;;5.57;4.63;;;;;;;26.22;46.42;100179.41;1732052;80;21026;-68
2021/05/28 11:01:55;;;;;;;4.77;3.83;;;;;;;26.29;45.81;100170.50;1682578;84;21006;-68
2021/05/28 11:04:24;;;;;;;5.40;4.20;;;;;;;26.37;45.55;100163.38;1739433;80;21114;-68
2021/05/28 11:07:00;;;;;;;4.30;3.90;;;;;;;26.43;45.59;100163.84;1740547;80;21119;-67
2021/05/28 11:09:47;;;;;;;10.03;7.07;;;;;;;26.50;46.01;100157.68;1718663;82;21077;-69
2021/05/28 11:12:36;;;;;;;9.53;8.63;;;;;;;26.54;47.43;100155.77;1729842;80;21065;-68
2021/05/28 11:15:14;;;;;;;8.67;7.80;;;;;;;26.51;47.34;100152.40;1737798;80;21062;-68
2021/05/28 11:17:58;;;;;;;9.43;7.80;;;;;;;26.40;48.05;100148.16;1741952;80;21758;-67
2021/05/28 11:20:40;;;;;;;9.10;7.67;;;;;;;26.34;48.43;100143.58;1730002;80;21093;-68